createdAt,value
2018-11-03T00:00:06.800Z,893.22
2018-11-03T00:01:06.782Z,893.19
2018-11-03T00:02:06.765Z,893.18
2018-11-03T00:03:06.756Z,893.13
2018-11-03T00:04:06.744Z,893.17
2018-11-03T00:05:06.729Z,893.13
2018-11-03T00:06:06.708Z,893.20
2018-11-03T00:07:06.701Z,893.17
2018-11-03T00:08:06.686Z,893.23
2018-11-03T00:09:06.671Z,893.24
2018-11-03T00:10:06.664Z,893.20
2018-11-03T00:11:06.641Z,893.19
2018-11-03T00:12:06.631Z,893.17
2018-11-03T00:13:06.615Z,893.15
2018-11-03T00:14:06.600Z,893.15
2018-11-03T00:15:06.588Z,893.16
2018-11-03T00:16:06.572Z,893.15
2018-11-03T00:17:06.562Z,893.16
2018-11-03T00:18:06.544Z,893.13
2018-11-03T00:19:06.533Z,893.15
2018-11-03T00:20:06.523Z,893.18
2018-11-03T00:21:06.501Z,893.23
2018-11-03T00:22:06.493Z,893.27
2018-11-03T00:23:06.474Z,893.28
2018-11-03T00:24:06.463Z,893.33
2018-11-03T00:25:06.448Z,893.35
2018-11-03T00:26:06.444Z,893.36
2018-11-03T00:27:06.419Z,893.35
2018-11-03T00:28:06.411Z,893.33
2018-11-03T00:29:06.394Z,893.31
2018-11-03T00:30:06.376Z,893.28
2018-11-03T00:31:06.368Z,893.31
2018-11-03T00:32:06.353Z,893.27
2018-11-03T00:33:06.340Z,893.28
2018-11-03T00:34:06.321Z,893.31
2018-11-03T00:35:06.304Z,893.32
2018-11-03T00:36:06.300Z,893.31
2018-11-03T00:37:06.284Z,893.32
2018-11-03T00:38:06.266Z,893.36
2018-11-03T00:39:06.252Z,893.34
2018-11-03T00:40:06.241Z,893.36
2018-11-03T00:41:06.229Z,893.41
2018-11-03T00:42:06.212Z,893.42
2018-11-03T00:43:06.196Z,893.42
2018-11-03T00:44:06.186Z,893.41
2018-11-03T00:45:06.170Z,893.41
2018-11-03T00:46:06.155Z,893.40
2018-11-03T00:47:06.148Z,893.44
2018-11-03T00:48:06.128Z,893.43
2018-11-03T00:49:06.117Z,893.45
2018-11-03T00:50:06.099Z,893.47
2018-11-03T00:51:06.083Z,893.47
2018-11-03T00:52:06.084Z,893.47
2018-11-03T00:53:06.058Z,893.48
2018-11-03T00:54:06.045Z,893.43
2018-11-03T00:55:06.031Z,893.42
2018-11-03T00:56:06.013Z,893.43
2018-11-03T00:57:06.003Z,893.46
2018-11-03T00:58:06.000Z,893.46
2018-11-03T00:59:05.976Z,893.51
2018-11-03T01:00:05.959Z,893.49
2018-11-03T01:01:05.948Z,893.52
2018-11-03T01:02:05.939Z,893.49
2018-11-03T01:03:05.920Z,893.48
2018-11-03T01:04:05.906Z,893.54
2018-11-03T01:05:05.888Z,893.56
2018-11-03T01:06:05.876Z,893.55
2018-11-03T01:07:05.858Z,893.54
2018-11-03T01:08:05.844Z,893.52
2018-11-03T01:09:05.834Z,893.53
2018-11-03T01:10:05.817Z,893.52
2018-11-03T01:11:05.808Z,893.55
2018-11-03T01:12:05.791Z,893.49
2018-11-03T01:13:05.775Z,893.48
2018-11-03T01:14:05.759Z,893.45
2018-11-03T01:15:05.748Z,893.47
2018-11-03T01:16:05.737Z,893.47
2018-11-03T01:17:05.723Z,893.42
2018-11-03T01:18:05.703Z,893.39
2018-11-03T01:19:05.696Z,893.41
2018-11-03T01:20:05.682Z,893.37
2018-11-03T01:21:05.660Z,893.35
2018-11-03T01:22:05.649Z,893.36
2018-11-03T01:23:05.637Z,893.34
2018-11-03T01:24:05.621Z,893.31
2018-11-03T01:25:05.610Z,893.28
2018-11-03T01:26:05.594Z,893.31
2018-11-03T01:27:05.580Z,893.28
2018-11-03T01:28:05.566Z,893.24
2018-11-03T01:29:05.552Z,893.22
2018-11-03T01:30:05.535Z,893.21
2018-11-03T01:31:05.522Z,893.20
2018-11-03T01:32:05.512Z,893.21
2018-11-03T01:33:05.491Z,893.21
2018-11-03T01:34:05.482Z,893.19
2018-11-03T01:35:05.466Z,893.13
2018-11-03T01:36:05.452Z,893.11
2018-11-03T01:37:05.438Z,893.11
2018-11-03T01:38:05.424Z,893.11
2018-11-03T01:39:05.407Z,893.18
2018-11-03T01:40:05.400Z,893.23
2018-11-03T01:41:05.386Z,893.22
2018-11-03T01:42:05.369Z,893.19
2018-11-03T01:43:05.359Z,893.24
2018-11-03T01:44:05.342Z,893.25
2018-11-03T01:45:05.331Z,893.23
2018-11-03T01:46:05.309Z,893.27
2018-11-03T01:47:05.298Z,893.24
2018-11-03T01:48:05.293Z,893.27
2018-11-03T01:49:05.269Z,893.24
2018-11-03T01:50:05.261Z,893.25
2018-11-03T01:51:05.242Z,893.24
2018-11-03T01:52:05.232Z,893.24
2018-11-03T01:53:05.214Z,893.18
2018-11-03T01:54:05.202Z,893.13
2018-11-03T01:55:05.198Z,893.11
2018-11-03T01:56:05.174Z,893.05
2018-11-03T01:57:05.160Z,893.04
2018-11-03T01:58:05.143Z,892.99
2018-11-03T01:59:05.133Z,892.97
2018-11-03T02:00:05.114Z,892.96
2018-11-03T02:01:05.102Z,892.95
2018-11-03T02:02:05.094Z,892.90
2018-11-03T02:03:05.083Z,892.85
2018-11-03T02:04:05.065Z,892.82
2018-11-03T02:05:05.051Z,892.76
2018-11-03T02:06:05.036Z,892.77
2018-11-03T02:07:05.021Z,892.70
2018-11-03T02:08:05.003Z,892.74
2018-11-03T02:09:04.993Z,892.75
2018-11-03T02:10:04.983Z,892.72
2018-11-03T02:11:04.967Z,892.70
2018-11-03T02:12:04.953Z,892.72
2018-11-03T02:13:04.939Z,892.69
2018-11-03T02:14:04.924Z,892.64
2018-11-03T02:15:04.902Z,892.65
2018-11-03T02:16:04.894Z,892.65
2018-11-03T02:17:04.879Z,892.63
2018-11-03T02:18:04.868Z,892.63
2018-11-03T02:19:04.850Z,892.64
2018-11-03T02:20:04.840Z,892.68
2018-11-03T02:21:04.819Z,892.70
2018-11-03T02:22:04.812Z,892.72
2018-11-03T02:23:04.801Z,892.72
2018-11-03T02:24:04.779Z,892.74
2018-11-03T02:25:04.775Z,892.75
2018-11-03T02:26:04.755Z,892.79
2018-11-03T02:27:04.753Z,892.79
2018-11-03T02:28:04.724Z,892.73
2018-11-03T02:29:04.713Z,892.69
2018-11-03T02:30:04.702Z,892.68
2018-11-03T02:31:04.684Z,892.71
2018-11-03T02:32:04.670Z,892.71
2018-11-03T02:33:04.656Z,892.73
2018-11-03T02:34:04.723Z,892.77
2018-11-03T02:35:04.628Z,892.77
2018-11-03T02:36:04.618Z,892.78
2018-11-03T02:37:04.604Z,892.75
2018-11-03T02:38:04.585Z,892.75
2018-11-03T02:39:04.571Z,892.72
2018-11-03T02:40:04.555Z,892.71
2018-11-03T02:41:04.547Z,892.72
2018-11-03T02:42:04.567Z,892.75
2018-11-03T02:43:04.515Z,892.71
2018-11-03T02:44:04.501Z,892.71
2018-11-03T02:45:04.489Z,892.72
2018-11-03T02:46:04.472Z,892.70
2018-11-03T02:47:04.461Z,892.69
2018-11-03T02:48:04.446Z,892.71
2018-11-03T02:49:04.440Z,892.72
2018-11-03T02:50:04.433Z,892.69
2018-11-03T02:51:04.409Z,892.70
2018-11-03T02:52:04.391Z,892.72
2018-11-03T02:53:04.380Z,892.73
2018-11-03T02:54:04.357Z,892.67
2018-11-03T02:55:04.354Z,892.66
2018-11-03T02:56:04.337Z,892.67
2018-11-03T02:57:04.317Z,892.67
2018-11-03T02:58:04.306Z,892.71
2018-11-03T02:59:04.293Z,892.70
2018-11-03T03:00:04.275Z,892.68
2018-11-03T03:01:04.260Z,892.71
2018-11-03T03:02:04.248Z,892.70
2018-11-03T03:03:04.236Z,892.76
2018-11-03T03:04:04.219Z,892.73
2018-11-03T03:05:04.214Z,892.75
2018-11-03T03:06:04.188Z,892.73
2018-11-03T03:07:04.177Z,892.78
2018-11-03T03:08:04.165Z,892.77
2018-11-03T03:09:04.149Z,892.75
2018-11-03T03:10:04.132Z,892.75
2018-11-03T03:11:04.119Z,892.77
2018-11-03T03:12:04.102Z,892.71
2018-11-03T03:13:04.090Z,892.74
2018-11-03T03:14:04.079Z,892.74
2018-11-03T03:15:04.062Z,892.72
2018-11-03T03:16:04.048Z,892.63
2018-11-03T03:17:04.038Z,892.65
2018-11-03T03:18:04.027Z,892.63
2018-11-03T03:19:04.003Z,892.64
2018-11-03T03:20:03.993Z,892.68
2018-11-03T03:21:03.977Z,892.69
2018-11-03T03:22:03.965Z,892.70
2018-11-03T03:23:03.953Z,892.72
2018-11-03T03:24:03.939Z,892.72
2018-11-03T03:25:03.928Z,892.74
2018-11-03T03:26:03.914Z,892.74
2018-11-03T03:27:03.900Z,892.71
2018-11-03T03:28:03.882Z,892.73
2018-11-03T03:29:03.976Z,892.79
2018-11-03T03:30:03.854Z,892.79
2018-11-03T03:31:03.841Z,892.77
2018-11-03T03:32:03.868Z,892.78
2018-11-03T03:33:03.816Z,892.75
2018-11-03T03:34:03.798Z,892.74
2018-11-03T03:35:03.785Z,892.74
2018-11-03T03:36:03.771Z,892.74
2018-11-03T03:37:03.761Z,892.74
2018-11-03T03:38:03.745Z,892.71
2018-11-03T03:39:03.726Z,892.63
2018-11-03T03:40:03.713Z,892.59
2018-11-03T03:41:03.698Z,892.61
2018-11-03T03:42:03.688Z,892.62
2018-11-03T03:43:03.671Z,892.60
2018-11-03T03:44:03.657Z,892.61
2018-11-03T03:45:03.645Z,892.60
2018-11-03T03:46:03.628Z,892.62
2018-11-03T03:47:03.611Z,892.57
2018-11-03T03:48:03.599Z,892.62
2018-11-03T03:49:03.585Z,892.64
2018-11-03T03:50:03.569Z,892.61
2018-11-03T03:51:03.560Z,892.66
2018-11-03T03:52:03.546Z,892.63
2018-11-03T03:53:03.531Z,892.61
2018-11-03T03:54:03.525Z,892.63
2018-11-03T03:55:03.515Z,892.59
2018-11-03T03:56:03.488Z,892.55
2018-11-03T03:57:03.476Z,892.57
2018-11-03T03:58:03.464Z,892.58
2018-11-03T03:59:03.445Z,892.54
2018-11-03T04:00:03.431Z,892.51
2018-11-03T04:01:03.415Z,892.52
2018-11-03T04:02:03.403Z,892.53
2018-11-03T04:03:03.395Z,892.51
2018-11-03T04:04:03.375Z,892.48
2018-11-03T04:05:03.366Z,892.44
2018-11-03T04:06:03.353Z,892.42
2018-11-03T04:07:03.336Z,892.38
2018-11-03T04:08:03.321Z,892.39
2018-11-03T04:09:03.306Z,892.39
2018-11-03T04:10:03.297Z,892.43
2018-11-03T04:11:03.279Z,892.45
2018-11-03T04:12:03.264Z,892.47
2018-11-03T04:13:03.249Z,892.53
2018-11-03T04:14:03.235Z,892.52
2018-11-03T04:15:03.221Z,892.51
2018-11-03T04:16:03.208Z,892.48
2018-11-03T04:17:03.195Z,892.44
2018-11-03T04:18:03.184Z,892.48
2018-11-03T04:19:03.168Z,892.43
2018-11-03T04:20:03.152Z,892.43
2018-11-03T04:21:03.138Z,892.39
2018-11-03T04:22:03.129Z,892.42
2018-11-03T04:23:03.113Z,892.45
2018-11-03T04:24:03.101Z,892.47
2018-11-03T04:25:03.088Z,892.50
2018-11-03T04:26:03.065Z,892.49
2018-11-03T04:27:03.054Z,892.47
2018-11-03T04:28:03.045Z,892.42
2018-11-03T04:29:03.021Z,892.40
2018-11-03T04:30:03.011Z,892.39
2018-11-03T04:31:02.991Z,892.39
2018-11-03T04:32:02.980Z,892.38
2018-11-03T04:33:02.967Z,892.32
2018-11-03T04:34:02.957Z,892.33
2018-11-03T04:35:02.944Z,892.29
2018-11-03T04:36:02.926Z,892.23
2018-11-03T04:37:02.910Z,892.24
2018-11-03T04:38:02.899Z,892.25
2018-11-03T04:39:02.881Z,892.22
2018-11-03T04:40:02.870Z,892.22
2018-11-03T04:41:02.856Z,892.19
2018-11-03T04:42:02.838Z,892.17
2018-11-03T04:43:02.826Z,892.17
2018-11-03T04:44:02.814Z,892.13
2018-11-03T04:45:02.801Z,892.14
2018-11-03T04:46:02.781Z,892.15
2018-11-03T04:47:02.766Z,892.11
2018-11-03T04:48:02.753Z,892.10
2018-11-03T04:49:02.742Z,892.15
2018-11-03T04:50:02.727Z,892.16
2018-11-03T04:51:02.712Z,892.15
2018-11-03T04:52:02.705Z,892.20
2018-11-03T04:53:02.704Z,892.13
2018-11-03T04:54:02.668Z,892.14
2018-11-03T04:55:02.716Z,892.11
2018-11-03T04:56:02.645Z,892.10
2018-11-03T04:57:02.631Z,892.07
2018-11-03T04:58:02.613Z,892.05
2018-11-03T04:59:02.596Z,892.04
2018-11-03T05:00:02.585Z,892.00
2018-11-03T05:01:02.571Z,892.06
2018-11-03T05:02:02.555Z,892.02
2018-11-03T05:03:02.540Z,891.99
2018-11-03T05:04:02.528Z,892.03
2018-11-03T05:05:02.511Z,892.01
2018-11-03T05:06:02.500Z,891.99
2018-11-03T05:07:02.485Z,892.04
2018-11-03T05:08:02.471Z,892.04
2018-11-03T05:09:02.462Z,892.03
2018-11-03T05:10:02.478Z,892.05
2018-11-03T05:11:02.428Z,892.06
2018-11-03T05:12:02.414Z,892.07
2018-11-03T05:13:02.391Z,892.05
2018-11-03T05:14:02.383Z,892.08
2018-11-03T05:15:02.372Z,892.08
2018-11-03T05:16:02.358Z,892.09
2018-11-03T05:17:02.343Z,892.14
2018-11-03T05:18:02.325Z,892.15
2018-11-03T05:19:02.313Z,892.11
2018-11-03T05:20:02.305Z,892.11
2018-11-03T05:21:02.320Z,892.17
2018-11-03T05:22:02.295Z,892.14
2018-11-03T05:23:02.260Z,892.14
2018-11-03T05:24:02.239Z,892.08
2018-11-03T05:25:02.241Z,892.16
2018-11-03T05:26:02.212Z,892.10
2018-11-03T05:27:02.198Z,892.07
2018-11-03T05:28:02.178Z,892.11
2018-11-03T05:29:02.170Z,892.11
2018-11-03T05:30:02.190Z,892.14
2018-11-03T05:31:02.201Z,892.14
2018-11-03T05:32:02.124Z,892.20
2018-11-03T05:33:02.106Z,892.21
2018-11-03T05:34:02.103Z,892.20
2018-11-03T05:35:02.086Z,892.20
2018-11-03T05:36:02.060Z,892.21
2018-11-03T05:37:02.054Z,892.19
2018-11-03T05:38:02.042Z,892.24
2018-11-03T05:39:02.121Z,892.23
2018-11-03T05:40:02.011Z,892.24
2018-11-03T05:41:01.991Z,892.22
2018-11-03T05:42:01.978Z,892.18
2018-11-03T05:43:01.960Z,892.19
2018-11-03T05:44:01.953Z,892.24
2018-11-03T05:45:01.937Z,892.25
2018-11-03T05:46:01.923Z,892.23
2018-11-03T05:47:01.903Z,892.23
2018-11-03T05:48:01.897Z,892.21
2018-11-03T05:49:01.883Z,892.26
2018-11-03T05:50:01.863Z,892.28
2018-11-03T05:51:01.847Z,892.32
2018-11-03T05:52:01.831Z,892.35
2018-11-03T05:53:01.818Z,892.35
2018-11-03T05:54:01.801Z,892.33
2018-11-03T05:55:01.797Z,892.31
2018-11-03T05:56:01.774Z,892.36
2018-11-03T05:57:01.765Z,892.38
2018-11-03T05:58:01.748Z,892.35
2018-11-03T05:59:01.859Z,892.37
2018-11-03T06:00:01.737Z,892.40
2018-11-03T06:01:01.703Z,892.42
2018-11-03T06:02:01.689Z,892.45
2018-11-03T06:03:01.671Z,892.43
2018-11-03T06:04:01.657Z,892.44
2018-11-03T06:05:01.643Z,892.46
2018-11-03T06:06:01.633Z,892.43
2018-11-03T06:07:01.615Z,892.44
2018-11-03T06:08:01.601Z,892.44
2018-11-03T06:09:01.628Z,892.41
2018-11-03T06:10:01.575Z,892.46
2018-11-03T06:11:01.571Z,892.46
2018-11-03T06:12:01.542Z,892.57
2018-11-03T06:13:01.524Z,892.55
2018-11-03T06:14:01.513Z,892.57
2018-11-03T06:15:01.500Z,892.59
2018-11-03T06:16:01.482Z,892.57
2018-11-03T06:17:01.470Z,892.57
2018-11-03T06:18:01.456Z,892.60
2018-11-03T06:19:01.443Z,892.59
2018-11-03T06:20:01.424Z,892.54
2018-11-03T06:21:01.418Z,892.57
2018-11-03T06:22:01.402Z,892.59
2018-11-03T06:23:01.474Z,892.63
2018-11-03T06:24:01.373Z,892.63
2018-11-03T06:25:01.373Z,892.62
2018-11-03T06:26:01.337Z,892.63
2018-11-03T06:27:01.332Z,892.63
2018-11-03T06:28:01.375Z,892.60
2018-11-03T06:29:01.297Z,892.67
2018-11-03T06:30:01.276Z,892.70
2018-11-03T06:31:01.268Z,892.77
2018-11-03T06:32:01.268Z,892.74
2018-11-03T06:33:01.232Z,892.73
2018-11-03T06:34:01.224Z,892.77
2018-11-03T06:35:01.260Z,892.76
2018-11-03T06:36:01.198Z,892.71
2018-11-03T06:37:01.178Z,892.73
2018-11-03T06:38:01.161Z,892.77
2018-11-03T06:39:01.244Z,892.79
2018-11-03T06:40:01.139Z,892.81
2018-11-03T06:41:01.125Z,892.81
2018-11-03T06:42:01.104Z,892.80
2018-11-03T06:43:01.088Z,892.78
2018-11-03T06:44:01.073Z,892.79
2018-11-03T06:45:01.066Z,892.79
2018-11-03T06:46:01.048Z,892.79
2018-11-03T06:47:01.030Z,892.83
2018-11-03T06:48:01.021Z,892.84
2018-11-03T06:49:01.003Z,892.82
2018-11-03T06:50:00.990Z,892.81
2018-11-03T06:51:00.971Z,892.81
2018-11-03T06:52:00.986Z,892.79
2018-11-03T06:53:00.944Z,892.79
2018-11-03T06:54:00.927Z,892.77
2018-11-03T06:55:00.916Z,892.76
2018-11-03T06:56:00.902Z,892.77
2018-11-03T06:57:00.888Z,892.82
2018-11-03T06:58:00.872Z,892.81
2018-11-03T06:59:00.857Z,892.85
2018-11-03T07:00:00.840Z,892.80
2018-11-03T07:01:00.822Z,892.81
2018-11-03T07:02:00.809Z,892.85
2018-11-03T07:03:00.807Z,892.83
2018-11-03T07:04:00.789Z,892.81
2018-11-03T07:05:00.812Z,892.84
2018-11-03T07:06:00.757Z,892.83
2018-11-03T07:07:00.738Z,892.83
2018-11-03T07:08:00.727Z,892.83
2018-11-03T07:09:00.714Z,892.82
2018-11-03T07:10:00.694Z,892.85
2018-11-03T07:11:00.676Z,892.85
2018-11-03T07:12:00.672Z,892.83
2018-11-03T07:13:00.702Z,892.80
2018-11-03T07:14:00.635Z,892.82
2018-11-03T07:15:00.620Z,892.85
2018-11-03T07:16:00.606Z,892.83
2018-11-03T07:17:00.596Z,892.87
2018-11-03T07:18:00.578Z,892.87
2018-11-03T07:19:00.560Z,892.85
2018-11-03T07:20:00.547Z,892.87
2018-11-03T07:21:00.544Z,892.91
2018-11-03T07:22:00.517Z,892.89
2018-11-03T07:23:00.507Z,892.86
2018-11-03T07:24:00.486Z,892.88
2018-11-03T07:25:00.473Z,892.87
2018-11-03T07:26:00.459Z,892.92
2018-11-03T07:27:00.443Z,892.90
2018-11-03T07:28:00.430Z,892.84
2018-11-03T07:29:00.416Z,892.85
2018-11-03T07:30:00.399Z,892.84
2018-11-03T07:31:00.387Z,892.86
2018-11-03T07:32:00.369Z,892.89
2018-11-03T07:33:00.355Z,892.94
2018-11-03T07:34:00.340Z,892.93
2018-11-03T07:35:00.326Z,892.93
2018-11-03T07:36:00.312Z,892.93
2018-11-03T07:37:00.300Z,892.97
2018-11-03T07:38:00.287Z,892.96
2018-11-03T07:39:00.284Z,892.96
2018-11-03T07:40:00.263Z,893.01
2018-11-03T07:41:00.332Z,892.97
2018-11-03T07:42:00.229Z,892.96
2018-11-03T07:43:00.213Z,892.99
2018-11-03T07:44:00.195Z,892.96
2018-11-03T07:45:00.183Z,892.99
2018-11-03T07:46:00.169Z,893.02
2018-11-03T07:47:00.155Z,893.07
2018-11-03T07:48:00.247Z,893.06
2018-11-03T07:49:00.204Z,893.08
2018-11-03T07:50:00.112Z,893.09
2018-11-03T07:51:00.111Z,893.06
2018-11-03T07:52:00.082Z,893.09
2018-11-03T07:53:00.068Z,893.10
2018-11-03T07:54:00.076Z,893.09
2018-11-03T07:55:00.039Z,893.12
2018-11-03T07:56:00.037Z,893.06
2018-11-03T07:57:00.013Z,893.07
2018-11-03T07:58:00.000Z,893.06
2018-11-03T07:58:59.984Z,893.09
2018-11-03T07:59:59.969Z,893.06
2018-11-03T08:00:59.957Z,893.09
2018-11-03T08:01:59.943Z,893.10
2018-11-03T08:02:59.931Z,893.15
2018-11-03T08:03:59.915Z,893.16
2018-11-03T08:04:59.897Z,893.18
2018-11-03T08:05:59.887Z,893.22
2018-11-03T08:06:59.890Z,893.22
2018-11-03T08:07:59.860Z,893.21
2018-11-03T08:08:59.900Z,893.25
2018-11-03T08:09:59.830Z,893.17
2018-11-03T08:10:59.817Z,893.22
2018-11-03T08:11:59.810Z,893.19
2018-11-03T08:12:59.806Z,893.25
2018-11-03T08:13:59.784Z,893.24
2018-11-03T08:14:59.763Z,893.18
2018-11-03T08:15:59.756Z,893.22
2018-11-03T08:16:59.767Z,893.16
2018-11-03T08:17:59.721Z,893.15
2018-11-03T08:18:59.709Z,893.23
2018-11-03T08:19:59.701Z,893.21
2018-11-03T08:20:59.697Z,893.16
2018-11-03T08:21:59.681Z,893.16
2018-11-03T08:22:59.663Z,893.18
2018-11-03T08:23:59.740Z,893.22
2018-11-03T08:24:59.633Z,893.25
2018-11-03T08:25:59.618Z,893.28
2018-11-03T08:26:59.646Z,893.28
2018-11-03T08:27:59.594Z,893.24
2018-11-03T08:28:59.581Z,893.25
2018-11-03T08:29:59.568Z,893.22
2018-11-03T08:30:59.546Z,893.23
2018-11-03T08:31:59.540Z,893.22
2018-11-03T08:32:59.526Z,893.21
2018-11-03T08:33:59.512Z,893.23
2018-11-03T08:34:59.507Z,893.26
2018-11-03T08:35:59.484Z,893.26
2018-11-03T08:36:59.479Z,893.30
2018-11-03T08:37:59.514Z,893.30
2018-11-03T08:38:59.446Z,893.35
2018-11-03T08:39:59.434Z,893.28
2018-11-03T08:40:59.433Z,893.30
2018-11-03T08:41:59.405Z,893.27
2018-11-03T08:42:59.392Z,893.27
2018-11-03T08:43:59.383Z,893.26
2018-11-03T08:44:59.367Z,893.26
2018-11-03T08:45:59.353Z,893.26
2018-11-03T08:46:59.344Z,893.27
2018-11-03T08:47:59.413Z,893.28
2018-11-03T08:48:59.330Z,893.28
2018-11-03T08:49:59.304Z,893.30
2018-11-03T08:50:59.289Z,893.25
2018-11-03T08:51:59.271Z,893.26
2018-11-03T08:52:59.271Z,893.27
2018-11-03T08:53:59.247Z,893.29
2018-11-03T08:54:59.230Z,893.24
2018-11-03T08:55:59.223Z,893.31
2018-11-03T08:56:59.210Z,893.28
2018-11-03T08:57:59.191Z,893.26
2018-11-03T08:58:59.180Z,893.23
2018-11-03T08:59:59.293Z,893.22
2018-11-03T09:00:59.158Z,893.22
2018-11-03T09:01:59.150Z,893.21
2018-11-03T09:02:59.127Z,893.23
2018-11-03T09:03:59.113Z,893.24
2018-11-03T09:04:59.099Z,893.22
2018-11-03T09:05:59.096Z,893.26
2018-11-03T09:06:59.167Z,893.21
2018-11-03T09:07:59.061Z,893.14
2018-11-03T09:08:59.111Z,893.11
2018-11-03T09:09:59.025Z,893.07
2018-11-03T09:10:59.022Z,893.11
2018-11-03T09:11:59.014Z,893.09
2018-11-03T09:12:58.999Z,893.07
2018-11-03T09:13:58.983Z,893.06
2018-11-03T09:14:58.971Z,893.09
2018-11-03T09:15:58.996Z,893.07
2018-11-03T09:16:58.941Z,893.07
2018-11-03T09:17:58.927Z,893.07
2018-11-03T09:18:58.913Z,893.12
2018-11-03T09:19:58.897Z,893.09
2018-11-03T09:20:58.885Z,893.16
2018-11-03T09:21:58.877Z,893.15
2018-11-03T09:22:58.866Z,893.16
2018-11-03T09:23:58.852Z,893.15
2018-11-03T09:24:58.834Z,893.18
2018-11-03T09:25:58.822Z,893.16
2018-11-03T09:26:58.840Z,893.19
2018-11-03T09:27:58.799Z,893.22
2018-11-03T09:28:58.797Z,893.24
2018-11-03T09:29:58.766Z,893.30
2018-11-03T09:30:58.763Z,893.30
2018-11-03T09:31:58.844Z,893.23
2018-11-03T09:32:58.727Z,893.24
2018-11-03T09:33:58.720Z,893.26
2018-11-03T09:34:58.704Z,893.29
2018-11-03T09:35:58.702Z,893.28
2018-11-03T09:36:58.682Z,893.25
2018-11-03T09:37:58.671Z,893.25
2018-11-03T09:38:58.740Z,893.29
2018-11-03T09:39:58.641Z,893.29
2018-11-03T09:40:58.631Z,893.29
2018-11-03T09:41:58.620Z,893.28
2018-11-03T09:42:58.634Z,893.30
2018-11-03T09:43:58.595Z,893.34
2018-11-03T09:44:58.654Z,893.34
2018-11-03T09:45:58.565Z,893.31
2018-11-03T09:46:58.553Z,893.34
2018-11-03T09:47:58.545Z,893.34
2018-11-03T09:48:58.529Z,893.38
2018-11-03T09:49:58.515Z,893.30
2018-11-03T09:50:58.521Z,893.29
2018-11-03T09:51:58.496Z,893.35
2018-11-03T09:52:58.480Z,893.34
2018-11-03T09:53:58.467Z,893.35
2018-11-03T09:54:58.454Z,893.39
2018-11-03T09:55:58.449Z,893.32
2018-11-03T09:56:58.434Z,893.39
2018-11-03T09:57:58.414Z,893.32
2018-11-03T09:58:58.405Z,893.29
2018-11-03T09:59:58.414Z,893.32
2018-11-03T10:00:58.390Z,893.27
2018-11-03T10:01:58.377Z,893.30
2018-11-03T10:02:58.366Z,893.31
2018-11-03T10:03:58.353Z,893.35
2018-11-03T10:04:58.338Z,893.28
2018-11-03T10:05:58.329Z,893.30
2018-11-03T10:06:58.320Z,893.27
2018-11-03T10:07:58.307Z,893.28
2018-11-03T10:08:58.299Z,893.25
2018-11-03T10:09:58.280Z,893.27
2018-11-03T10:10:58.275Z,893.29
2018-11-03T10:11:58.263Z,893.25
2018-11-03T10:12:58.260Z,893.28
2018-11-03T10:13:58.234Z,893.28
2018-11-03T10:14:58.218Z,893.31
2018-11-03T10:15:58.272Z,893.32
2018-11-03T10:16:58.199Z,893.35
2018-11-03T10:17:58.189Z,893.35
2018-11-03T10:18:58.174Z,893.27
2018-11-03T10:19:58.161Z,893.23
2018-11-03T10:20:58.157Z,893.20
2018-11-03T10:21:58.149Z,893.18
2018-11-03T10:22:58.199Z,893.17
2018-11-03T10:23:58.123Z,893.21
2018-11-03T10:24:58.112Z,893.25
2018-11-03T10:25:58.090Z,893.27
2018-11-03T10:26:58.083Z,893.30
2018-11-03T10:27:58.076Z,893.35
2018-11-03T10:28:58.063Z,893.26
2018-11-03T10:29:58.052Z,893.24
2018-11-03T10:30:58.075Z,893.20
2018-11-03T10:31:58.039Z,893.26
2018-11-03T10:32:58.024Z,893.24
2018-11-03T10:33:58.011Z,893.24
2018-11-03T10:34:57.994Z,893.21
2018-11-03T10:35:57.987Z,893.19
2018-11-03T10:36:57.973Z,893.22
2018-11-03T10:37:57.962Z,893.24
2018-11-03T10:38:57.951Z,893.21
2018-11-03T10:39:57.936Z,893.20
2018-11-03T10:40:57.928Z,893.22
2018-11-03T10:41:57.914Z,893.15
2018-11-03T10:42:57.908Z,893.11
2018-11-03T10:43:57.895Z,893.08
2018-11-03T10:44:57.889Z,893.06
2018-11-03T10:45:57.867Z,893.06
2018-11-03T10:46:57.861Z,893.06
2018-11-03T10:47:57.855Z,893.00
2018-11-03T10:48:57.849Z,893.01
2018-11-03T10:49:57.832Z,892.99
2018-11-03T10:50:57.822Z,892.94
2018-11-03T10:51:57.810Z,892.96
2018-11-03T10:52:57.800Z,892.94
2018-11-03T10:53:57.789Z,892.94
2018-11-03T10:54:57.772Z,892.93
2018-11-03T10:55:57.765Z,892.89
2018-11-03T10:56:57.759Z,892.85
2018-11-03T10:57:57.742Z,892.83
2018-11-03T10:58:57.741Z,892.81
2018-11-03T10:59:57.720Z,892.78
2018-11-03T11:00:57.718Z,892.77
2018-11-03T11:01:57.705Z,892.78
2018-11-03T11:02:57.699Z,892.76
2018-11-03T11:03:57.686Z,892.76
2018-11-03T11:04:57.686Z,892.74
2018-11-03T11:05:57.667Z,892.64
2018-11-03T11:06:57.655Z,892.62
2018-11-03T11:07:57.643Z,892.62
2018-11-03T11:08:57.636Z,892.60
2018-11-03T11:09:57.621Z,892.51
2018-11-03T11:10:57.614Z,892.52
2018-11-03T11:11:57.601Z,892.53
2018-11-03T11:12:57.596Z,892.45
2018-11-03T11:13:57.626Z,892.45
2018-11-03T11:14:57.576Z,892.43
2018-11-03T11:15:57.690Z,892.45
2018-11-03T11:16:57.696Z,892.44
2018-11-03T11:17:57.542Z,892.39
2018-11-03T11:18:57.531Z,892.37
2018-11-03T11:19:57.521Z,892.38
2018-11-03T11:20:57.509Z,892.32
2018-11-03T11:21:57.505Z,892.38
2018-11-03T11:22:57.514Z,892.39
2018-11-03T11:23:57.540Z,892.35
2018-11-03T11:24:57.716Z,892.39
2018-11-03T11:25:57.463Z,892.38
2018-11-03T11:26:57.456Z,892.37
2018-11-03T11:27:57.446Z,892.34
2018-11-03T11:28:57.435Z,892.39
2018-11-03T11:29:57.422Z,892.38
2018-11-03T11:30:57.413Z,892.38
2018-11-03T11:31:57.405Z,892.34
2018-11-03T11:32:57.411Z,892.32
2018-11-03T11:33:57.387Z,892.37
2018-11-03T11:34:57.379Z,892.42
2018-11-03T11:35:57.368Z,892.45
2018-11-03T11:36:57.354Z,892.45
2018-11-03T11:37:57.350Z,892.43
2018-11-03T11:38:57.337Z,892.39
2018-11-03T11:39:57.332Z,892.37
2018-11-03T11:40:57.322Z,892.39
2018-11-03T11:41:57.307Z,892.34
2018-11-03T11:42:57.310Z,892.33
2018-11-03T11:43:57.290Z,892.36
2018-11-03T11:44:57.279Z,892.32
2018-11-03T11:45:57.281Z,892.31
2018-11-03T11:46:57.261Z,892.26
2018-11-03T11:47:57.246Z,892.29
2018-11-03T11:48:57.242Z,892.27
2018-11-03T11:49:57.269Z,892.31
2018-11-03T11:50:57.227Z,892.33
2018-11-03T11:51:57.218Z,892.27
2018-11-03T11:52:57.212Z,892.21
2018-11-03T11:53:57.195Z,892.17
2018-11-03T11:54:57.271Z,892.16
2018-11-03T11:55:57.179Z,892.17
2018-11-03T11:56:57.171Z,892.15
2018-11-03T11:57:57.159Z,892.11
2018-11-03T11:58:57.151Z,892.11
2018-11-03T11:59:57.145Z,892.05
2018-11-03T12:00:57.133Z,892.00
2018-11-03T12:01:57.126Z,891.98
2018-11-03T12:02:57.115Z,891.96
2018-11-03T12:03:57.107Z,891.94
2018-11-03T12:04:57.094Z,891.97
2018-11-03T12:05:57.089Z,891.93
2018-11-03T12:06:57.082Z,891.89
2018-11-03T12:07:57.068Z,891.89
2018-11-03T12:08:57.065Z,891.86
2018-11-03T12:09:57.112Z,891.84
2018-11-03T12:10:57.050Z,891.82
2018-11-03T12:11:57.038Z,891.81
2018-11-03T12:12:57.030Z,891.81
2018-11-03T12:13:57.021Z,891.77
2018-11-03T12:14:57.012Z,891.74
2018-11-03T12:15:57.004Z,891.71
2018-11-03T12:16:56.999Z,891.71
2018-11-03T12:17:56.988Z,891.68
2018-11-03T12:18:56.992Z,891.68
2018-11-03T12:19:56.963Z,891.71
2018-11-03T12:20:56.962Z,891.70
2018-11-03T12:21:56.956Z,891.64
2018-11-03T12:22:56.960Z,891.68
2018-11-03T12:23:56.932Z,891.68
2018-11-03T12:24:56.968Z,891.63
2018-11-03T12:25:56.923Z,891.63
2018-11-03T12:26:56.912Z,891.62
2018-11-03T12:27:56.903Z,891.65